createdAt,value
2023-05-16T00:01:49.269Z,11.30
2023-05-16T00:04:17.789Z,8.67
2023-05-16T00:06:46.177Z,11.97
2023-05-16T00:09:14.481Z,9.27
2023-05-16T00:11:42.790Z,7.90
2023-05-16T00:14:11.782Z,13.40
2023-05-16T00:16:42.292Z,11.17
2023-05-16T00:19:11.472Z,8.83
2023-05-16T00:21:39.795Z,12.90
2023-05-16T00:24:08.828Z,8.73
2023-05-16T00:26:37.135Z,8.70
2023-05-16T00:29:05.470Z,11.07
2023-05-16T00:31:33.932Z,8.63
2023-05-16T00:34:03.710Z,14.97
2023-05-16T00:36:32.350Z,12.67
2023-05-16T00:39:01.308Z,17.00
2023-05-16T00:41:29.666Z,5.60
2023-05-16T00:43:58.003Z,11.93
2023-05-16T00:46:26.347Z,17.33
2023-05-16T00:48:54.703Z,16.20
2023-05-16T00:51:24.647Z,9.37
2023-05-16T00:53:54.925Z,15.03
2023-05-16T00:56:23.863Z,14.97
2023-05-16T00:58:52.313Z,14.10
2023-05-16T01:01:24.778Z,13.47
2023-05-16T01:03:55.533Z,13.47
2023-05-16T01:06:25.369Z,16.03
2023-05-16T01:08:54.590Z,15.63
2023-05-16T01:11:29.545Z,11.73
2023-05-16T01:14:07.549Z,15.20
2023-05-16T01:16:40.613Z,15.07
2023-05-16T01:19:22.479Z,19.47
2023-05-16T01:22:04.633Z,21.50
2023-05-16T01:24:36.142Z,16.73
2023-05-16T01:27:07.225Z,23.50
2023-05-16T01:29:35.744Z,29.60
2023-05-16T01:32:06.506Z,22.70
2023-05-16T01:34:35.484Z,27.17
2023-05-16T01:37:11.630Z,26.93
2023-05-16T01:39:45.576Z,20.10
2023-05-16T01:42:17.218Z,20.07
2023-05-16T01:44:50.392Z,27.93
2023-05-16T01:47:21.659Z,24.53
2023-05-16T01:49:58.653Z,23.73
2023-05-16T01:52:32.538Z,28.17
2023-05-16T01:55:04.116Z,25.07
2023-05-16T01:57:35.026Z,16.47
2023-05-16T02:00:03.611Z,19.83
2023-05-16T02:02:32.899Z,22.73
2023-05-16T02:05:06.545Z,20.80
2023-05-16T02:07:35.972Z,21.80
2023-05-16T02:10:04.958Z,20.00
2023-05-16T02:12:38.626Z,18.13
2023-05-16T02:15:07.945Z,24.00
2023-05-16T02:17:36.318Z,21.73
2023-05-16T02:20:07.356Z,21.10
2023-05-16T02:22:36.192Z,26.43
2023-05-16T02:25:05.119Z,22.17
2023-05-16T02:27:33.688Z,26.90
2023-05-16T02:30:03.772Z,21.50
2023-05-16T02:32:32.184Z,23.47
2023-05-16T02:35:00.650Z,22.93
2023-05-16T02:37:28.947Z,26.70
2023-05-16T02:39:58.527Z,20.73
2023-05-16T02:42:28.173Z,27.13
2023-05-16T02:44:56.533Z,25.60
2023-05-16T02:47:27.575Z,16.87
2023-05-16T02:49:56.503Z,21.23
2023-05-16T02:52:24.971Z,25.77
2023-05-16T02:57:24.698Z,18.67
2023-05-16T02:59:53.082Z,22.07
2023-05-16T03:02:21.538Z,20.57
2023-05-16T03:04:51.272Z,26.00
2023-05-16T03:07:19.650Z,20.33
2023-05-16T03:09:47.935Z,20.57
2023-05-16T03:12:16.283Z,21.97
2023-05-16T03:14:44.551Z,25.07
2023-05-16T03:17:12.900Z,21.50
2023-05-16T03:19:41.266Z,21.07
2023-05-16T03:22:11.012Z,23.03
2023-05-16T03:24:39.355Z,19.63
2023-05-16T03:27:08.179Z,27.33
2023-05-16T03:29:36.589Z,22.30
2023-05-16T03:32:06.202Z,28.30
2023-05-16T03:34:34.747Z,23.33
2023-05-16T03:37:03.064Z,22.60
2023-05-16T03:39:32.858Z,21.30
2023-05-16T03:42:01.194Z,26.90
2023-05-16T03:44:29.516Z,21.90
2023-05-16T03:46:57.803Z,22.13
2023-05-16T03:49:28.520Z,21.40
2023-05-16T03:51:57.583Z,22.97
2023-05-16T03:54:25.885Z,22.13
2023-05-16T03:56:55.675Z,28.33
2023-05-16T03:59:24.198Z,24.87
2023-05-16T04:01:52.528Z,22.17
2023-05-16T04:04:21.051Z,25.60
2023-05-16T04:06:49.284Z,27.63
2023-05-16T04:09:17.689Z,27.00
2023-05-16T04:11:46.079Z,25.50
2023-05-16T04:14:16.165Z,24.97
2023-05-16T04:16:44.610Z,22.60
2023-05-16T04:19:13.018Z,33.07
2023-05-16T04:21:41.503Z,23.47
2023-05-16T04:24:09.922Z,24.27
2023-05-16T04:26:38.479Z,24.87
2023-05-16T04:29:07.262Z,20.60
2023-05-16T04:31:37.739Z,32.03
2023-05-16T04:34:06.072Z,24.23
2023-05-16T04:36:35.608Z,24.90
2023-05-16T04:39:04.134Z,23.17
2023-05-16T04:41:32.752Z,25.30
2023-05-16T04:44:03.594Z,27.27
2023-05-16T04:46:32.199Z,27.07
2023-05-16T04:49:01.906Z,25.97
2023-05-16T04:51:31.860Z,29.57
2023-05-16T04:54:00.168Z,28.07
2023-05-16T04:56:28.626Z,25.00
2023-05-16T04:58:57.010Z,28.40
2023-05-16T05:01:25.341Z,27.07
2023-05-16T05:03:53.690Z,33.00
2023-05-16T05:06:23.538Z,23.80
2023-05-16T05:08:51.830Z,27.27
2023-05-16T05:11:20.370Z,23.77
2023-05-16T05:13:50.740Z,25.27
2023-05-16T05:16:20.483Z,21.57
2023-05-16T05:18:49.004Z,23.83
2023-05-16T05:21:18.564Z,20.10
2023-05-16T05:23:49.795Z,22.63
2023-05-16T05:26:18.667Z,22.40
2023-05-16T05:28:53.772Z,17.97
2023-05-16T05:31:30.122Z,17.70
2023-05-16T05:33:58.600Z,23.40
2023-05-16T05:36:26.982Z,21.57
2023-05-16T05:38:56.763Z,22.83
2023-05-16T05:41:25.233Z,22.90
2023-05-16T05:43:53.567Z,23.63
2023-05-16T05:46:21.946Z,19.57
2023-05-16T05:48:50.597Z,16.60
2023-05-16T05:51:19.273Z,21.60
2023-05-16T05:53:47.911Z,18.47
2023-05-16T05:56:17.642Z,22.37
2023-05-16T05:58:46.053Z,18.17
2023-05-16T06:01:14.746Z,20.80
2023-05-16T06:03:43.056Z,17.80
2023-05-16T06:06:11.457Z,20.67
2023-05-16T06:08:39.818Z,17.40
2023-05-16T06:11:08.311Z,17.60
2023-05-16T06:13:38.032Z,17.97
2023-05-16T06:16:08.790Z,16.30
2023-05-16T06:18:38.774Z,12.37
2023-05-16T06:21:07.498Z,16.80
2023-05-16T06:23:36.053Z,13.13
2023-05-16T06:26:04.757Z,14.30
2023-05-16T06:28:33.325Z,12.93
2023-05-16T06:31:03.095Z,16.37
2023-05-16T06:33:31.599Z,9.50
2023-05-16T06:35:59.948Z,12.00
2023-05-16T06:38:28.400Z,17.57
2023-05-16T06:40:56.716Z,10.33
2023-05-16T06:43:25.280Z,14.07
2023-05-16T06:45:53.648Z,13.40
2023-05-16T06:48:23.537Z,11.17
2023-05-16T06:50:52.246Z,8.13
2023-05-16T06:53:20.942Z,14.73
2023-05-16T06:55:49.319Z,10.33
2023-05-16T06:58:17.816Z,8.93
2023-05-16T07:00:46.708Z,12.40
2023-05-16T07:03:41.737Z,9.90
2023-05-16T07:06:11.619Z,8.73
2023-05-16T07:08:40.274Z,9.57
2023-05-16T07:11:08.806Z,10.53
2023-05-16T07:13:37.166Z,8.07
2023-05-16T07:16:07.946Z,10.47
2023-05-16T07:18:36.447Z,6.83
2023-05-16T07:21:06.343Z,10.73
2023-05-16T07:23:34.690Z,8.60
2023-05-16T07:26:03.525Z,11.13
2023-05-16T07:28:32.086Z,16.80
2023-05-16T07:31:03.292Z,9.20
2023-05-16T07:33:31.646Z,12.90
2023-05-16T07:36:12.204Z,10.77
2023-05-16T07:38:45.939Z,10.20
2023-05-16T07:41:14.666Z,9.67
2023-05-16T07:43:43.423Z,11.10
2023-05-16T07:46:12.194Z,7.83
2023-05-16T07:48:40.743Z,7.27
2023-05-16T07:51:09.148Z,9.60
2023-05-16T07:53:37.575Z,9.47
2023-05-16T07:56:08.784Z,7.47
2023-05-16T07:58:37.449Z,9.13
2023-05-16T08:01:05.934Z,6.17
2023-05-16T08:03:34.529Z,9.77
2023-05-16T08:06:03.084Z,6.87
2023-05-16T08:08:31.490Z,10.00
2023-05-16T08:10:59.823Z,6.80
2023-05-16T08:13:29.642Z,8.33
2023-05-16T08:15:58.099Z,6.67
2023-05-16T08:18:26.467Z,10.37
2023-05-16T08:20:54.756Z,6.23
2023-05-16T08:23:23.151Z,11.33
2023-05-16T08:25:51.627Z,7.03
2023-05-16T08:28:20.164Z,6.80
2023-05-16T08:30:50.138Z,9.43
2023-05-16T08:33:18.582Z,77.60
2023-05-16T08:35:49.642Z,54.13
2023-05-16T08:38:18.065Z,88.43
2023-05-16T08:40:46.863Z,30.40
2023-05-16T08:43:15.390Z,51.07
2023-05-16T08:45:43.993Z,14.70
2023-05-16T08:48:16.047Z,66.07
2023-05-16T08:50:44.462Z,87.83
2023-05-16T08:53:15.967Z,31.37
2023-05-16T08:55:45.495Z,19.47
2023-05-16T08:58:14.832Z,19.63
2023-05-16T09:00:43.536Z,12.03
2023-05-16T09:03:13.722Z,6.47
2023-05-16T09:05:42.542Z,7.53
2023-05-16T09:08:11.504Z,5.80
2023-05-16T09:10:40.752Z,9.30
2023-05-16T09:13:09.134Z,9.10
2023-05-16T09:15:37.525Z,10.37
2023-05-16T09:18:05.922Z,13.93
2023-05-16T09:20:35.866Z,11.70
2023-05-16T09:23:04.206Z,12.40
2023-05-16T09:25:33.094Z,9.47
2023-05-16T09:28:03.586Z,10.43
2023-05-16T09:30:34.292Z,8.47
2023-05-16T09:33:03.310Z,11.40
2023-05-16T09:38:05.780Z,8.33
2023-05-16T09:40:34.171Z,13.63
2023-05-16T09:43:07.008Z,8.80
2023-05-16T09:45:36.681Z,15.30
2023-05-16T09:48:06.952Z,7.73
2023-05-16T09:50:36.322Z,11.27
2023-05-16T09:53:06.734Z,8.93
2023-05-16T09:55:35.359Z,13.07
2023-05-16T09:58:03.795Z,10.13
2023-05-16T10:00:33.668Z,11.23
2023-05-16T10:03:05.832Z,8.93
2023-05-16T10:05:34.922Z,12.40
2023-05-16T10:08:06.363Z,12.90
2023-05-16T10:10:38.423Z,11.90
2023-05-16T10:13:08.958Z,15.67
2023-05-16T10:15:39.382Z,14.03
2023-05-16T10:18:13.182Z,14.27
2023-05-16T10:20:44.119Z,14.70
2023-05-16T10:23:18.865Z,10.97
2023-05-16T10:25:49.744Z,13.93
2023-05-16T10:28:18.570Z,12.70
2023-05-16T10:30:47.976Z,18.80
2023-05-16T10:33:18.290Z,14.07
2023-05-16T10:35:47.378Z,13.53
2023-05-16T10:38:19.912Z,18.40
2023-05-16T10:40:49.913Z,14.60
2023-05-16T10:43:26.808Z,12.20
2023-05-16T10:45:57.541Z,11.70
2023-05-16T10:48:33.521Z,18.10
2023-05-16T10:51:04.160Z,13.90
2023-05-16T10:53:35.645Z,16.70
2023-05-16T10:56:12.649Z,12.30
2023-05-16T10:58:49.124Z,14.93
2023-05-16T11:01:25.098Z,12.17
2023-05-16T11:04:17.390Z,13.70
2023-05-16T11:06:47.958Z,14.53
2023-05-16T11:09:23.568Z,13.97
2023-05-16T11:12:03.683Z,13.77
2023-05-16T11:14:39.209Z,17.73
2023-05-16T11:17:13.124Z,18.33
2023-05-16T11:19:43.780Z,14.60
2023-05-16T11:22:25.819Z,18.30
2023-05-16T11:24:58.498Z,18.13
2023-05-16T11:27:29.335Z,16.57
2023-05-16T11:30:03.702Z,17.50
2023-05-16T11:32:35.236Z,16.73
2023-05-16T11:35:04.261Z,16.03
2023-05-16T11:37:32.761Z,13.53
2023-05-16T11:40:04.325Z,13.37
2023-05-16T11:42:34.169Z,16.13
2023-05-16T11:45:07.222Z,16.53
2023-05-16T11:47:37.606Z,14.07
2023-05-16T11:50:07.916Z,16.67
2023-05-16T11:52:36.614Z,17.43
2023-05-16T11:55:08.428Z,18.20
2023-05-16T11:57:36.991Z,17.83
2023-05-16T12:00:08.157Z,14.37
2023-05-16T12:02:36.875Z,20.33
2023-05-16T12:05:10.236Z,16.00
2023-05-16T12:07:39.143Z,21.70
2023-05-16T12:10:10.602Z,22.33
2023-05-16T12:12:41.454Z,27.97
2023-05-16T12:15:11.220Z,19.67
2023-05-16T12:17:41.853Z,28.63
2023-05-16T12:20:14.439Z,25.70
2023-05-16T12:22:44.876Z,22.87
2023-05-16T12:25:37.592Z,28.47
2023-05-16T12:28:07.912Z,19.37
2023-05-16T12:30:36.285Z,18.97
2023-05-16T12:33:10.225Z,18.80
2023-05-16T12:35:40.511Z,17.60
2023-05-16T12:38:09.703Z,16.43
2023-05-16T12:40:41.052Z,17.53
2023-05-16T12:43:15.525Z,18.60
2023-05-16T12:45:44.582Z,17.03
2023-05-16T12:48:16.281Z,17.63
2023-05-16T12:50:46.657Z,16.63
2023-05-16T12:53:17.207Z,19.77
2023-05-16T12:55:47.053Z,17.03
2023-05-16T12:58:16.640Z,14.57
2023-05-16T13:00:45.037Z,12.63
2023-05-16T13:03:13.502Z,13.07
2023-05-16T13:05:42.384Z,9.37
2023-05-16T13:08:12.365Z,15.70
2023-05-16T13:10:40.754Z,12.67
2023-05-16T13:13:11.014Z,13.57
2023-05-16T13:15:40.900Z,11.77
2023-05-16T13:18:09.522Z,15.30
2023-05-16T13:20:39.027Z,13.70
2023-05-16T13:23:07.442Z,11.02
2023-05-16T13:25:35.949Z,16.30
2023-05-16T13:28:04.874Z,11.32
2023-05-16T13:30:35.041Z,15.07
2023-05-16T13:33:03.701Z,12.05
2023-05-16T13:35:32.087Z,11.75
2023-05-16T13:38:00.825Z,13.77
2023-05-16T13:40:29.530Z,13.18
2023-05-16T13:42:58.097Z,13.83
2023-05-16T13:45:27.671Z,12.23
2023-05-16T13:47:57.744Z,19.05
2023-05-16T13:50:33.351Z,10.93
2023-05-16T13:53:02.276Z,15.10
2023-05-16T13:55:30.802Z,13.63
2023-05-16T13:58:00.128Z,21.58
2023-05-16T14:00:43.329Z,11.90
2023-05-16T14:03:14.848Z,18.88
2023-05-16T14:05:43.397Z,13.68
2023-05-16T14:08:11.719Z,13.82
2023-05-16T14:10:40.135Z,16.95
2023-05-16T14:13:08.453Z,18.07
2023-05-16T14:15:36.951Z,11.67
2023-05-16T14:18:05.781Z,15.57
2023-05-16T14:20:35.926Z,12.77
2023-05-16T14:23:04.300Z,15.67
2023-05-16T14:25:32.965Z,14.57
2023-05-16T14:28:01.379Z,14.30
2023-05-16T14:30:30.079Z,12.90
2023-05-16T14:32:59.378Z,11.15
2023-05-16T14:35:28.006Z,13.50
2023-05-16T14:37:57.943Z,10.68
2023-05-16T14:40:28.644Z,10.85
2023-05-16T14:42:57.115Z,12.00
2023-05-16T14:45:25.653Z,18.58
2023-05-16T14:47:54.128Z,13.60
2023-05-16T14:50:22.694Z,14.27
2023-05-16T14:52:51.234Z,16.65
2023-05-16T14:55:21.816Z,13.32
2023-05-16T14:57:52.512Z,13.25
2023-05-16T15:00:28.115Z,16.05
2023-05-16T15:02:56.959Z,19.63
2023-05-16T15:05:25.740Z,12.80
2023-05-16T15:07:54.175Z,18.45
2023-05-16T15:10:24.162Z,14.15
2023-05-16T15:12:52.532Z,12.82
2023-05-16T15:15:21.026Z,15.37
2023-05-16T15:17:49.518Z,14.43
2023-05-16T15:20:18.732Z,17.37
2023-05-16T15:22:48.493Z,16.87
2023-05-16T15:25:16.830Z,10.60
2023-05-16T15:27:46.542Z,10.30
2023-05-16T15:30:15.569Z,13.80
2023-05-16T15:32:44.689Z,8.37
2023-05-16T15:35:13.663Z,14.57
2023-05-16T15:37:42.343Z,9.60
2023-05-16T15:40:12.532Z,9.93
2023-05-16T15:42:44.381Z,14.05
2023-05-16T15:45:14.463Z,14.80
2023-05-16T15:47:43.331Z,11.57
2023-05-16T15:50:12.666Z,16.25
2023-05-16T15:52:41.163Z,13.55
2023-05-16T15:55:12.088Z,8.73
2023-05-16T15:57:40.757Z,11.18
2023-05-16T16:00:10.275Z,8.18
2023-05-16T16:02:45.466Z,8.48
2023-05-16T16:05:13.941Z,8.00
2023-05-16T16:07:42.322Z,8.00
2023-05-16T16:10:11.880Z,9.85
2023-05-16T16:12:41.259Z,9.23
2023-05-16T16:15:11.921Z,11.02
2023-05-16T16:17:40.406Z,9.10
2023-05-16T16:20:11.564Z,6.57
2023-05-16T16:22:39.946Z,9.17
2023-05-16T16:25:09.039Z,5.60
2023-05-16T16:27:37.435Z,9.25
2023-05-16T16:30:06.787Z,8.85
2023-05-16T16:32:35.288Z,8.95
2023-05-16T16:35:05.480Z,7.90
2023-05-16T16:37:35.939Z,6.13
2023-05-16T16:40:05.124Z,6.60
2023-05-16T16:42:33.472Z,7.87
2023-05-16T16:45:01.863Z,9.10
2023-05-16T16:47:30.286Z,5.77
2023-05-16T16:49:58.712Z,9.07
2023-05-16T16:52:27.108Z,12.80
2023-05-16T16:54:56.838Z,13.83
2023-05-16T16:57:25.245Z,12.87
2023-05-16T16:59:53.671Z,8.83
2023-05-16T17:02:22.412Z,12.00
2023-05-16T17:04:50.850Z,9.73
2023-05-16T17:07:19.215Z,9.43
2023-05-16T17:09:47.654Z,9.47
2023-05-16T17:12:20.370Z,9.83
2023-05-16T17:14:50.246Z,10.87
2023-05-16T17:17:19.299Z,12.13
2023-05-16T17:19:48.367Z,7.97
2023-05-16T17:22:16.755Z,7.90
2023-05-16T17:24:45.479Z,12.07
2023-05-16T17:27:13.895Z,8.30
2023-05-16T17:29:43.700Z,10.00
2023-05-16T17:32:12.170Z,9.77
2023-05-16T17:34:40.830Z,8.20
2023-05-16T17:37:10.557Z,10.47
2023-05-16T17:39:40.322Z,7.20
2023-05-16T17:42:09.336Z,6.50
2023-05-16T17:44:44.569Z,7.87
2023-05-16T17:47:16.633Z,7.50
2023-05-16T17:49:46.204Z,6.30
2023-05-16T17:52:14.772Z,10.13
2023-05-16T17:54:43.630Z,9.13
2023-05-16T17:57:12.371Z,8.97
2023-05-16T17:59:40.716Z,11.87
2023-05-16T18:02:15.255Z,10.23
2023-05-16T18:04:44.678Z,11.73
2023-05-16T18:07:13.349Z,18.43
2023-05-16T18:09:41.756Z,12.83
2023-05-16T18:12:10.700Z,9.67
2023-05-16T18:14:39.335Z,12.97
2023-05-16T18:17:08.520Z,8.83
2023-05-16T18:19:38.405Z,13.67
2023-05-16T18:22:08.733Z,8.43
2023-05-16T18:24:38.045Z,12.93
2023-05-16T18:27:06.751Z,7.97
2023-05-16T18:29:35.452Z,10.87
2023-05-16T18:32:03.916Z,12.43
2023-05-16T18:34:32.467Z,12.87
2023-05-16T18:37:02.214Z,12.93
2023-05-16T18:39:31.864Z,9.57
2023-05-16T18:42:00.562Z,8.67
2023-05-16T18:44:28.950Z,17.27
2023-05-16T18:46:58.875Z,11.33
2023-05-16T18:49:27.644Z,18.30
2023-05-16T18:51:57.192Z,12.37
2023-05-16T18:54:27.117Z,12.37
2023-05-16T18:56:56.216Z,23.30
2023-05-16T18:59:24.590Z,12.13
2023-05-16T19:01:53.119Z,11.33
2023-05-16T19:04:21.643Z,13.53
2023-05-16T19:06:50.705Z,15.60
2023-05-16T19:09:19.635Z,16.30
2023-05-16T19:11:49.516Z,11.53
2023-05-16T19:14:18.267Z,29.07
2023-05-16T19:16:46.629Z,11.20
2023-05-16T19:19:15.190Z,8.37
2023-05-16T19:21:43.667Z,37.67
2023-05-16T19:24:12.758Z,26.77
2023-05-16T19:26:41.261Z,14.17
2023-05-16T19:29:11.159Z,21.93
2023-05-16T19:31:39.540Z,10.10
2023-05-16T19:34:08.433Z,18.87
2023-05-16T19:36:37.367Z,15.60
2023-05-16T19:39:05.905Z,32.40
2023-05-16T19:41:34.266Z,13.13
2023-05-16T19:44:02.724Z,14.47
2023-05-16T19:46:32.418Z,9.97
2023-05-16T19:49:01.018Z,14.70
2023-05-16T19:51:40.873Z,14.37
2023-05-16T19:54:10.628Z,8.67
2023-05-16T19:56:38.999Z,11.57
2023-05-16T19:59:07.401Z,11.33
2023-05-16T20:01:37.182Z,10.27
2023-05-16T20:04:06.506Z,14.20
2023-05-16T20:06:34.909Z,11.20
2023-05-16T20:09:03.443Z,13.90
2023-05-16T20:11:31.887Z,8.53
2023-05-16T20:14:03.528Z,12.07
2023-05-16T20:16:32.330Z,11.60
2023-05-16T20:19:02.083Z,7.57
2023-05-16T20:21:31.047Z,11.77
2023-05-16T20:23:59.707Z,10.10
2023-05-16T20:26:28.068Z,11.30
2023-05-16T20:28:56.370Z,22.70
2023-05-16T20:31:24.861Z,6.67
2023-05-16T20:33:53.407Z,6.47
2023-05-16T20:36:23.308Z,9.97
2023-05-16T20:38:51.852Z,12.50
2023-05-16T20:41:20.389Z,12.33
2023-05-16T20:43:50.651Z,14.17
2023-05-16T20:46:19.051Z,12.50
2023-05-16T20:48:47.394Z,27.57
2023-05-16T20:51:15.792Z,10.77
2023-05-16T20:53:45.498Z,9.03
2023-05-16T20:56:13.882Z,9.27
2023-05-16T20:58:42.327Z,14.10
2023-05-16T21:01:11.049Z,10.13
2023-05-16T21:03:39.393Z,9.87
2023-05-16T21:06:07.991Z,12.43
2023-05-16T21:08:36.516Z,11.50
2023-05-16T21:11:06.286Z,13.47
2023-05-16T21:13:34.610Z,15.50
2023-05-16T21:16:03.101Z,9.33
2023-05-16T21:18:31.622Z,12.03
2023-05-16T21:21:00.028Z,10.00
2023-05-16T21:23:28.574Z,11.23
2023-05-16T21:25:56.959Z,12.23
2023-05-16T21:28:26.849Z,10.50
2023-05-16T21:30:55.757Z,13.13
2023-05-16T21:33:24.259Z,9.40
2023-05-16T21:35:53.349Z,10.57
2023-05-16T21:38:21.797Z,9.20
2023-05-16T21:40:50.205Z,8.50
2023-05-16T21:43:18.537Z,17.47
2023-05-16T21:45:48.252Z,11.67
2023-05-16T21:48:16.703Z,8.67
2023-05-16T21:50:45.135Z,9.37
2023-05-16T21:53:13.515Z,11.60
2023-05-16T21:55:41.858Z,10.70
2023-05-16T21:58:10.336Z,11.90
2023-05-16T22:00:38.777Z,11.30
2023-05-16T22:03:10.942Z,9.63
2023-05-16T22:05:39.474Z,9.73
2023-05-16T22:08:08.670Z,8.97
2023-05-16T22:10:37.050Z,11.47
2023-05-16T22:13:05.451Z,6.57
2023-05-16T22:15:33.820Z,9.80
2023-05-16T22:18:02.360Z,8.47
2023-05-16T22:20:32.147Z,9.03
2023-05-16T22:23:00.638Z,9.43
2023-05-16T22:25:29.351Z,9.73
2023-05-16T22:27:57.976Z,10.27
2023-05-16T22:30:26.317Z,11.23
2023-05-16T22:32:57.133Z,10.67
2023-05-16T22:35:28.295Z,11.40
2023-05-16T22:37:58.207Z,6.40
2023-05-16T22:40:26.876Z,6.93
2023-05-16T22:42:55.211Z,13.00
2023-05-16T22:45:23.674Z,10.30
2023-05-16T22:47:52.047Z,6.27
2023-05-16T22:50:20.619Z,5.83
2023-05-16T22:52:49.360Z,10.07
2023-05-16T22:55:19.232Z,6.67
2023-05-16T22:57:47.627Z,7.53
2023-05-16T23:00:16.629Z,6.73
2023-05-16T23:02:45.153Z,7.13
2023-05-16T23:05:13.825Z,7.43
2023-05-16T23:07:42.281Z,12.37
2023-05-16T23:10:11.040Z,10.53
2023-05-16T23:12:40.848Z,9.30
2023-05-16T23:15:10.506Z,16.90
2023-05-16T23:17:39.367Z,12.27
2023-05-16T23:20:09.104Z,11.33
2023-05-16T23:22:37.478Z,11.33
2023-05-16T23:25:06.489Z,7.33
2023-05-16T23:27:34.847Z,7.00
2023-05-16T23:30:04.885Z,9.20
2023-05-16T23:32:33.370Z,12.23
2023-05-16T23:35:01.773Z,8.67
2023-05-16T23:37:31.048Z,5.33
2023-05-16T23:39:59.474Z,4.60
2023-05-16T23:42:27.885Z,5.23
2023-05-16T23:44:56.287Z,7.77
2023-05-16T23:47:27.077Z,8.90
2023-05-16T23:49:55.569Z,5.17
2023-05-16T23:52:23.953Z,16.13
2023-05-16T23:54:52.278Z,9.07
2023-05-16T23:57:20.810Z,18.27
2023-05-16T23:59:49.128Z,6.50
